sensor_id;sensor_type;location;lat;lon;timestamp;temperature;humidity
52203;DHT22;38173;52.850;6.970;2023-08-30T00:00:45;12.90;99.90
52203;DHT22;38173;52.850;6.970;2023-08-30T00:03:11;12.90;99.90
52203;DHT22;38173;52.850;6.970;2023-08-30T00:05:41;12.80;99.90
52203;DHT22;38173;52.850;6.970;2023-08-30T00:08:08;12.80;99.90
52203;DHT22;38173;52.850;6.970;2023-08-30T00:10:34;12.80;99.90
52203;DHT22;38173;52.850;6.970;2023-08-30T00:13:00;12.80;99.90
52203;DHT22;38173;52.850;6.970;2023-08-30T00:15:26;12.70;99.90
52203;DHT22;38173;52.850;6.970;2023-08-30T00:17:51;12.70;99.90
52203;DHT22;38173;52.850;6.970;2023-08-30T00:20:21;12.70;99.90
52203;DHT22;38173;52.850;6.970;2023-08-30T00:22:47;12.60;99.90
52203;DHT22;38173;52.850;6.970;2023-08-30T00:25:16;12.60;99.90
52203;DHT22;38173;52.850;6.970;2023-08-30T00:27:42;12.60;99.90
52203;DHT22;38173;52.850;6.970;2023-08-30T00:30:09;12.50;99.90
52203;DHT22;38173;52.850;6.970;2023-08-30T00:32:35;12.50;99.90
52203;DHT22;38173;52.850;6.970;2023-08-30T00:35:02;12.50;99.90
52203;DHT22;38173;52.850;6.970;2023-08-30T00:37:27;12.40;99.90
52203;DHT22;38173;52.850;6.970;2023-08-30T00:39:53;12.40;99.90
52203;DHT22;38173;52.850;6.970;2023-08-30T00:42:19;12.40;99.90
52203;DHT22;38173;52.850;6.970;2023-08-30T00:44:44;12.30;99.90
52203;DHT22;38173;52.850;6.970;2023-08-30T00:47:10;12.30;99.90
52203;DHT22;38173;52.850;6.970;2023-08-30T00:49:36;12.30;99.90
52203;DHT22;38173;52.850;6.970;2023-08-30T00:52:06;12.30;99.90
52203;DHT22;38173;52.850;6.970;2023-08-30T00:54:32;12.20;99.90
52203;DHT22;38173;52.850;6.970;2023-08-30T00:56:57;12.20;99.90
52203;DHT22;38173;52.850;6.970;2023-08-30T00:59:26;12.20;99.90
52203;DHT22;38173;52.850;6.970;2023-08-30T01:01:52;12.20;99.90
52203;DHT22;38173;52.850;6.970;2023-08-30T01:04:19;12.20;99.90
52203;DHT22;38173;52.850;6.970;2023-08-30T01:06:45;12.20;99.90
52203;DHT22;38173;52.850;6.970;2023-08-30T01:09:11;12.20;99.90
52203;DHT22;38173;52.850;6.970;2023-08-30T01:14:40;12.20;99.90
52203;DHT22;38173;52.850;6.970;2023-08-30T01:17:10;12.20;99.90
52203;DHT22;38173;52.850;6.970;2023-08-30T01:20:06;12.20;99.90
52203;DHT22;38173;52.850;6.970;2023-08-30T01:23:03;12.10;99.90
52203;DHT22;38173;52.850;6.970;2023-08-30T01:25:57;12.10;99.90
52203;DHT22;38173;52.850;6.970;2023-08-30T01:28:30;12.10;99.90
52203;DHT22;38173;52.850;6.970;2023-08-30T01:30:57;12.10;99.90
52203;DHT22;38173;52.850;6.970;2023-08-30T01:33:24;12.00;99.90
52203;DHT22;38173;52.850;6.970;2023-08-30T01:35:55;12.00;99.90
52203;DHT22;38173;52.850;6.970;2023-08-30T01:38:21;12.00;99.90
52203;DHT22;38173;52.850;6.970;2023-08-30T01:40:48;11.90;99.90
52203;DHT22;38173;52.850;6.970;2023-08-30T01:43:14;11.90;99.90
52203;DHT22;38173;52.850;6.970;2023-08-30T01:45:44;11.90;99.90
52203;DHT22;38173;52.850;6.970;2023-08-30T01:48:12;11.80;99.90
52203;DHT22;38173;52.850;6.970;2023-08-30T01:50:40;11.80;99.90
52203;DHT22;38173;52.850;6.970;2023-08-30T01:53:06;11.70;99.90
52203;DHT22;38173;52.850;6.970;2023-08-30T01:55:34;11.80;99.90
52203;DHT22;38173;52.850;6.970;2023-08-30T01:58:00;11.80;99.90
52203;DHT22;38173;52.850;6.970;2023-08-30T02:00:26;11.70;99.90
52203;DHT22;38173;52.850;6.970;2023-08-30T02:02:52;11.70;99.90
52203;DHT22;38173;52.850;6.970;2023-08-30T02:05:18;11.70;99.90
52203;DHT22;38173;52.850;6.970;2023-08-30T02:08:05;11.70;99.90
52203;DHT22;38173;52.850;6.970;2023-08-30T02:10:37;11.70;99.90
52203;DHT22;38173;52.850;6.970;2023-08-30T02:13:04;11.70;99.90
52203;DHT22;38173;52.850;6.970;2023-08-30T02:15:31;11.60;99.90
52203;DHT22;38173;52.850;6.970;2023-08-30T02:17:59;11.60;99.90
52203;DHT22;38173;52.850;6.970;2023-08-30T02:20:25;11.60;99.90
52203;DHT22;38173;52.850;6.970;2023-08-30T02:22:51;11.60;99.90
52203;DHT22;38173;52.850;6.970;2023-08-30T02:25:17;11.50;99.90
52203;DHT22;38173;52.850;6.970;2023-08-30T02:27:42;11.50;99.90
52203;DHT22;38173;52.850;6.970;2023-08-30T02:30:08;11.40;99.90
52203;DHT22;38173;52.850;6.970;2023-08-30T02:32:34;11.40;99.90
52203;DHT22;38173;52.850;6.970;2023-08-30T02:35:01;11.40;99.90
52203;DHT22;38173;52.850;6.970;2023-08-30T02:37:27;11.30;99.90
52203;DHT22;38173;52.850;6.970;2023-08-30T02:39:52;11.30;99.90
52203;DHT22;38173;52.850;6.970;2023-08-30T02:42:18;11.30;99.90
52203;DHT22;38173;52.850;6.970;2023-08-30T02:44:44;11.30;99.90
52203;DHT22;38173;52.850;6.970;2023-08-30T02:47:09;11.20;99.90
52203;DHT22;38173;52.850;6.970;2023-08-30T02:49:35;11.20;99.90
52203;DHT22;38173;52.850;6.970;2023-08-30T02:52:01;11.20;99.90
52203;DHT22;38173;52.850;6.970;2023-08-30T02:54:26;11.20;99.90
52203;DHT22;38173;52.850;6.970;2023-08-30T02:56:52;11.10;99.90
52203;DHT22;38173;52.850;6.970;2023-08-30T02:59:18;11.10;99.90
52203;DHT22;38173;52.850;6.970;2023-08-30T03:01:43;11.10;99.90
52203;DHT22;38173;52.850;6.970;2023-08-30T03:04:09;11.00;99.90
52203;DHT22;38173;52.850;6.970;2023-08-30T03:06:35;11.00;99.90
52203;DHT22;38173;52.850;6.970;2023-08-30T03:09:02;11.00;99.90
52203;DHT22;38173;52.850;6.970;2023-08-30T03:11:28;10.90;99.90
52203;DHT22;38173;52.850;6.970;2023-08-30T03:13:54;10.80;99.90
52203;DHT22;38173;52.850;6.970;2023-08-30T03:16:20;10.80;99.90
52203;DHT22;38173;52.850;6.970;2023-08-30T03:18:46;10.80;99.90
52203;DHT22;38173;52.850;6.970;2023-08-30T03:21:13;10.80;99.90
52203;DHT22;38173;52.850;6.970;2023-08-30T03:23:39;10.80;99.90
52203;DHT22;38173;52.850;6.970;2023-08-30T03:28:35;10.80;99.90
52203;DHT22;38173;52.850;6.970;2023-08-30T03:31:01;10.80;99.90
52203;DHT22;38173;52.850;6.970;2023-08-30T03:33:26;10.70;99.90
52203;DHT22;38173;52.850;6.970;2023-08-30T03:35:52;10.70;99.90
52203;DHT22;38173;52.850;6.970;2023-08-30T03:38:18;10.70;99.90
52203;DHT22;38173;52.850;6.970;2023-08-30T03:40:43;10.70;99.90
52203;DHT22;38173;52.850;6.970;2023-08-30T03:43:09;10.60;99.90
52203;DHT22;38173;52.850;6.970;2023-08-30T03:45:37;10.60;99.90
52203;DHT22;38173;52.850;6.970;2023-08-30T03:48:05;10.70;99.90
52203;DHT22;38173;52.850;6.970;2023-08-30T03:50:30;10.70;99.90
52203;DHT22;38173;52.850;6.970;2023-08-30T03:52:56;10.70;99.90
52203;DHT22;38173;52.850;6.970;2023-08-30T03:55:22;10.60;99.90
52203;DHT22;38173;52.850;6.970;2023-08-30T03:57:48;10.60;99.90
52203;DHT22;38173;52.850;6.970;2023-08-30T04:00:14;10.60;99.90
52203;DHT22;38173;52.850;6.970;2023-08-30T04:02:40;10.60;99.90
52203;DHT22;38173;52.850;6.970;2023-08-30T04:05:06;10.60;99.90
52203;DHT22;38173;52.850;6.970;2023-08-30T04:07:35;10.60;99.90
52203;DHT22;38173;52.850;6.970;2023-08-30T04:10:01;10.70;99.90
52203;DHT22;38173;52.850;6.970;2023-08-30T04:12:31;10.60;99.90
52203;DHT22;38173;52.850;6.970;2023-08-30T04:14:57;10.60;99.90
52203;DHT22;38173;52.850;6.970;2023-08-30T04:17:22;10.60;99.90
52203;DHT22;38173;52.850;6.970;2023-08-30T04:19:51;10.60;99.90
52203;DHT22;38173;52.850;6.970;2023-08-30T04:22:17;10.60;99.90
52203;DHT22;38173;52.850;6.970;2023-08-30T04:24:43;10.60;99.90
52203;DHT22;38173;52.850;6.970;2023-08-30T04:27:09;10.70;99.90
52203;DHT22;38173;52.850;6.970;2023-08-30T04:29:35;10.60;99.90
52203;DHT22;38173;52.850;6.970;2023-08-30T04:32:00;10.60;99.90
52203;DHT22;38173;52.850;6.970;2023-08-30T04:34:26;10.70;99.90
52203;DHT22;38173;52.850;6.970;2023-08-30T04:36:52;10.70;99.90
52203;DHT22;38173;52.850;6.970;2023-08-30T04:39:18;10.70;99.90
52203;DHT22;38173;52.850;6.970;2023-08-30T04:41:44;10.70;99.90
52203;DHT22;38173;52.850;6.970;2023-08-30T04:44:09;10.70;99.90
52203;DHT22;38173;52.850;6.970;2023-08-30T04:46:36;10.70;99.90
52203;DHT22;38173;52.850;6.970;2023-08-30T04:49:02;10.80;99.90
52203;DHT22;38173;52.850;6.970;2023-08-30T04:51:28;10.80;99.90
52203;DHT22;38173;52.850;6.970;2023-08-30T04:53:53;10.90;99.90
52203;DHT22;38173;52.850;6.970;2023-08-30T04:56:19;10.90;99.90
52203;DHT22;38173;52.850;6.970;2023-08-30T04:58:45;11.00;99.90
52203;DHT22;38173;52.850;6.970;2023-08-30T05:01:10;11.10;99.90
52203;DHT22;38173;52.850;6.970;2023-08-30T05:03:39;11.10;99.90
52203;DHT22;38173;52.850;6.970;2023-08-30T05:06:05;11.20;99.90
52203;DHT22;38173;52.850;6.970;2023-08-30T05:08:31;11.30;99.90
52203;DHT22;38173;52.850;6.970;2023-08-30T05:10:56;11.30;99.90
52203;DHT22;38173;52.850;6.970;2023-08-30T05:13:22;11.40;99.90
52203;DHT22;38173;52.850;6.970;2023-08-30T05:15:48;11.50;99.90
52203;DHT22;38173;52.850;6.970;2023-08-30T05:18:14;11.50;99.90
52203;DHT22;38173;52.850;6.970;2023-08-30T05:20:39;11.60;99.90
52203;DHT22;38173;52.850;6.970;2023-08-30T05:23:05;11.60;99.90
52203;DHT22;38173;52.850;6.970;2023-08-30T05:25:30;11.60;99.90
52203;DHT22;38173;52.850;6.970;2023-08-30T05:27:56;11.60;99.90
52203;DHT22;38173;52.850;6.970;2023-08-30T05:30:22;11.70;99.90
52203;DHT22;38173;52.850;6.970;2023-08-30T05:32:47;11.70;99.90
52203;DHT22;38173;52.850;6.970;2023-08-30T05:35:13;11.80;99.90
52203;DHT22;38173;52.850;6.970;2023-08-30T05:37:39;11.80;99.90
52203;DHT22;38173;52.850;6.970;2023-08-30T05:40:05;11.90;99.90
52203;DHT22;38173;52.850;6.970;2023-08-30T05:42:31;11.80;99.90
52203;DHT22;38173;52.850;6.970;2023-08-30T05:44:57;11.90;99.90
52203;DHT22;38173;52.850;6.970;2023-08-30T05:47:22;12.00;99.90
52203;DHT22;38173;52.850;6.970;2023-08-30T05:49:48;12.00;99.90
52203;DHT22;38173;52.850;6.970;2023-08-30T05:52:15;12.10;99.90
52203;DHT22;38173;52.850;6.970;2023-08-30T05:54:41;12.10;99.90
52203;DHT22;38173;52.850;6.970;2023-08-30T05:57:09;12.20;99.90
52203;DHT22;38173;52.850;6.970;2023-08-30T05:59:34;12.20;99.90
52203;DHT22;38173;52.850;6.970;2023-08-30T06:02:01;12.30;99.90
52203;DHT22;38173;52.850;6.970;2023-08-30T06:04:27;12.30;99.90
52203;DHT22;38173;52.850;6.970;2023-08-30T06:06:53;12.40;99.90
52203;DHT22;38173;52.850;6.970;2023-08-30T06:09:18;12.40;99.90
52203;DHT22;38173;52.850;6.970;2023-08-30T06:11:44;12.50;99.90
52203;DHT22;38173;52.850;6.970;2023-08-30T06:14:10;12.50;99.90
52203;DHT22;38173;52.850;6.970;2023-08-30T06:16:35;12.60;99.90
52203;DHT22;38173;52.850;6.970;2023-08-30T06:19:01;12.60;99.90
52203;DHT22;38173;52.850;6.970;2023-08-30T06:21:28;12.70;99.90
52203;DHT22;38173;52.850;6.970;2023-08-30T06:23:54;12.80;99.90
52203;DHT22;38173;52.850;6.970;2023-08-30T06:26:19;12.80;99.90
52203;DHT22;38173;52.850;6.970;2023-08-30T06:28:45;12.80;99.90
52203;DHT22;38173;52.850;6.970;2023-08-30T06:31:11;12.90;99.90
52203;DHT22;38173;52.850;6.970;2023-08-30T06:33:38;12.90;99.90
52203;DHT22;38173;52.850;6.970;2023-08-30T06:36:05;13.00;99.90
52203;DHT22;38173;52.850;6.970;2023-08-30T06:38:30;13.00;99.90
52203;DHT22;38173;52.850;6.970;2023-08-30T06:40:58;13.10;99.90
52203;DHT22;38173;52.850;6.970;2023-08-30T06:43:23;13.00;99.90
52203;DHT22;38173;52.850;6.970;2023-08-30T06:45:49;13.10;99.90
52203;DHT22;38173;52.850;6.970;2023-08-30T06:48:19;13.20;99.90
52203;DHT22;38173;52.850;6.970;2023-08-30T06:50:45;13.20;99.90
52203;DHT22;38173;52.850;6.970;2023-08-30T06:53:10;13.30;99.90
52203;DHT22;38173;52.850;6.970;2023-08-30T06:55:36;13.30;99.90
52203;DHT22;38173;52.850;6.970;2023-08-30T06:58:03;13.40;99.90
52203;DHT22;38173;52.850;6.970;2023-08-30T07:00:29;13.50;99.90
52203;DHT22;38173;52.850;6.970;2023-08-30T07:02:55;13.50;99.90
52203;DHT22;38173;52.850;6.970;2023-08-30T07:05:22;13.60;99.90
52203;DHT22;38173;52.850;6.970;2023-08-30T07:07:48;13.70;99.90
52203;DHT22;38173;52.850;6.970;2023-08-30T07:10:14;13.80;99.90
52203;DHT22;38173;52.850;6.970;2023-08-30T07:12:41;13.90;99.90
52203;DHT22;38173;52.850;6.970;2023-08-30T07:15:07;14.00;99.90
52203;DHT22;38173;52.850;6.970;2023-08-30T07:17:34;14.10;99.90
52203;DHT22;38173;52.850;6.970;2023-08-30T07:19:59;14.30;99.90
52203;DHT22;38173;52.850;6.970;2023-08-30T07:22:26;14.40;99.90
52203;DHT22;38173;52.850;6.970;2023-08-30T07:24:52;14.50;99.90
52203;DHT22;38173;52.850;6.970;2023-08-30T07:27:18;14.60;99.90
52203;DHT22;38173;52.850;6.970;2023-08-30T07:29:44;14.70;99.90
52203;DHT22;38173;52.850;6.970;2023-08-30T07:32:10;14.90;99.90
52203;DHT22;38173;52.850;6.970;2023-08-30T07:34:35;15.00;99.90
52203;DHT22;38173;52.850;6.970;2023-08-30T07:37:01;15.20;99.90
52203;DHT22;38173;52.850;6.970;2023-08-30T07:39:28;15.30;99.90
52203;DHT22;38173;52.850;6.970;2023-08-30T07:41:53;15.40;99.90
52203;DHT22;38173;52.850;6.970;2023-08-30T07:44:19;15.40;99.90
52203;DHT22;38173;52.850;6.970;2023-08-30T07:46:46;15.40;99.90
52203;DHT22;38173;52.850;6.970;2023-08-30T07:49:12;15.40;99.90
52203;DHT22;38173;52.850;6.970;2023-08-30T07:51:38;15.50;99.90
52203;DHT22;38173;52.850;6.970;2023-08-30T07:54:04;15.50;99.90
52203;DHT22;38173;52.850;6.970;2023-08-30T07:56:30;15.50;99.90
52203;DHT22;38173;52.850;6.970;2023-08-30T07:58:56;15.60;99.90
52203;DHT22;38173;52.850;6.970;2023-08-30T08:01:23;15.60;99.90
52203;DHT22;38173;52.850;6.970;2023-08-30T08:03:49;15.60;99.90
52203;DHT22;38173;52.850;6.970;2023-08-30T08:06:14;15.70;99.90
52203;DHT22;38173;52.850;6.970;2023-08-30T08:08:40;15.70;99.90
52203;DHT22;38173;52.850;6.970;2023-08-30T08:11:06;15.80;99.90
52203;DHT22;38173;52.850;6.970;2023-08-30T08:13:31;15.90;99.90
52203;DHT22;38173;52.850;6.970;2023-08-30T08:15:57;16.10;99.90
52203;DHT22;38173;52.850;6.970;2023-08-30T08:18:23;16.30;99.90
52203;DHT22;38173;52.850;6.970;2023-08-30T08:20:50;16.40;99.90
52203;DHT22;38173;52.850;6.970;2023-08-30T08:23:15;16.70;99.90
52203;DHT22;38173;52.850;6.970;2023-08-30T08:25:41;17.00;99.90
52203;DHT22;38173;52.850;6.970;2023-08-30T08:28:07;17.30;99.90
52203;DHT22;38173;52.850;6.970;2023-08-30T08:30:33;17.60;99.90
52203;DHT22;38173;52.850;6.970;2023-08-30T08:32:58;17.70;99.90
52203;DHT22;38173;52.850;6.970;2023-08-30T08:35:25;17.80;99.90
52203;DHT22;38173;52.850;6.970;2023-08-30T08:37:51;17.70;99.90
52203;DHT22;38173;52.850;6.970;2023-08-30T08:40:18;17.60;99.90
52203;DHT22;38173;52.850;6.970;2023-08-30T08:42:44;17.60;99.90
52203;DHT22;38173;52.850;6.970;2023-08-30T08:45:11;17.50;99.90
52203;DHT22;38173;52.850;6.970;2023-08-30T08:47:38;17.50;99.90
52203;DHT22;38173;52.850;6.970;2023-08-30T08:50:04;17.40;99.90
52203;DHT22;38173;52.850;6.970;2023-08-30T08:52:30;17.30;99.90
52203;DHT22;38173;52.850;6.970;2023-08-30T08:54:56;17.20;99.90
52203;DHT22;38173;52.850;6.970;2023-08-30T08:57:23;17.30;99.90
52203;DHT22;38173;52.850;6.970;2023-08-30T08:59:48;17.30;99.90
52203;DHT22;38173;52.850;6.970;2023-08-30T09:02:16;17.30;99.90
52203;DHT22;38173;52.850;6.970;2023-08-30T09:04:42;17.40;99.90
52203;DHT22;38173;52.850;6.970;2023-08-30T09:07:08;17.40;99.90
52203;DHT22;38173;52.850;6.970;2023-08-30T09:09:34;17.50;99.90
52203;DHT22;38173;52.850;6.970;2023-08-30T09:12:00;17.40;99.90
52203;DHT22;38173;52.850;6.970;2023-08-30T09:14:26;17.40;99.90
52203;DHT22;38173;52.850;6.970;2023-08-30T09:16:59;17.30;99.90
52203;DHT22;38173;52.850;6.970;2023-08-30T09:19:28;17.30;99.90
52203;DHT22;38173;52.850;6.970;2023-08-30T09:21:56;17.10;99.90
52203;DHT22;38173;52.850;6.970;2023-08-30T09:24:23;17.00;99.90
52203;DHT22;38173;52.850;6.970;2023-08-30T09:26:50;16.90;99.90
52203;DHT22;38173;52.850;6.970;2023-08-30T09:29:17;16.90;99.90
52203;DHT22;38173;52.850;6.970;2023-08-30T09:31:44;16.80;99.90
52203;DHT22;38173;52.850;6.970;2023-08-30T09:34:10;16.70;99.90
52203;DHT22;38173;52.850;6.970;2023-08-30T09:36:41;16.60;99.90
52203;DHT22;38173;52.850;6.970;2023-08-30T09:39:12;16.60;99.90
52203;DHT22;38173;52.850;6.970;2023-08-30T09:41:46;16.50;99.90
52203;DHT22;38173;52.850;6.970;2023-08-30T09:44:13;16.50;99.90
52203;DHT22;38173;52.850;6.970;2023-08-30T09:46:57;16.50;99.90
52203;DHT22;38173;52.850;6.970;2023-08-30T09:49:25;16.50;99.90
52203;DHT22;38173;52.850;6.970;2023-08-30T09:51:52;16.40;99.90
52203;DHT22;38173;52.850;6.970;2023-08-30T09:54:21;16.40;99.90
52203;DHT22;38173;52.850;6.970;2023-08-30T09:56:50;16.30;99.90
52203;DHT22;38173;52.850;6.970;2023-08-30T09:59:22;16.30;99.90
52203;DHT22;38173;52.850;6.970;2023-08-30T10:01:49;16.20;99.90
52203;DHT22;38173;52.850;6.970;2023-08-30T10:04:16;16.20;99.90
52203;DHT22;38173;52.850;6.970;2023-08-30T10:06:43;16.10;99.90
52203;DHT22;38173;52.850;6.970;2023-08-30T10:09:10;16.00;99.90
52203;DHT22;38173;52.850;6.970;2023-08-30T10:11:37;16.00;99.90
52203;DHT22;38173;52.850;6.970;2023-08-30T10:14:04;16.00;99.90
52203;DHT22;38173;52.850;6.970;2023-08-30T10:16:43;16.10;99.90
52203;DHT22;38173;52.850;6.970;2023-08-30T10:19:25;16.20;99.90
52203;DHT22;38173;52.850;6.970;2023-08-30T10:22:04;16.30;99.90
52203;DHT22;38173;52.850;6.970;2023-08-30T10:24:35;16.40;99.90
52203;DHT22;38173;52.850;6.970;2023-08-30T10:27:04;16.60;99.90
52203;DHT22;38173;52.850;6.970;2023-08-30T10:29:33;16.70;99.90
52203;DHT22;38173;52.850;6.970;2023-08-30T10:32:05;16.90;99.90
52203;DHT22;38173;52.850;6.970;2023-08-30T10:34:35;17.00;99.90
52203;DHT22;38173;52.850;6.970;2023-08-30T10:37:11;17.10;99.90
52203;DHT22;38173;52.850;6.970;2023-08-30T10:39:39;17.20;99.90
52203;DHT22;38173;52.850;6.970;2023-08-30T10:42:13;17.20;99.90
52203;DHT22;38173;52.850;6.970;2023-08-30T10:44:49;17.40;99.90
52203;DHT22;38173;52.850;6.970;2023-08-30T10:47:30;17.30;99.90
52203;DHT22;38173;52.850;6.970;2023-08-30T10:49:57;17.40;99.90
52203;DHT22;38173;52.850;6.970;2023-08-30T10:52:25;17.30;99.90
52203;DHT22;38173;52.850;6.970;2023-08-30T10:55:03;17.20;99.90
52203;DHT22;38173;52.850;6.970;2023-08-30T10:57:36;17.20;99.90
52203;DHT22;38173;52.850;6.970;2023-08-30T11:02:51;17.10;99.90
52203;DHT22;38173;52.850;6.970;2023-08-30T11:05:19;17.00;99.90
52203;DHT22;38173;52.850;6.970;2023-08-30T11:07:47;16.90;99.90
52203;DHT22;38173;52.850;6.970;2023-08-30T11:10:15;16.90;99.90
52203;DHT22;38173;52.850;6.970;2023-08-30T11:12:43;16.80;99.90
52203;DHT22;38173;52.850;6.970;2023-08-30T11:15:10;16.80;99.90
52203;DHT22;38173;52.850;6.970;2023-08-30T11:17:36;16.80;99.90
52203;DHT22;38173;52.850;6.970;2023-08-30T11:20:14;16.70;99.90
52203;DHT22;38173;52.850;6.970;2023-08-30T11:22:43;16.60;99.90
52203;DHT22;38173;52.850;6.970;2023-08-30T11:25:11;16.60;99.90
52203;DHT22;38173;52.850;6.970;2023-08-30T11:27:38;16.50;99.90
52203;DHT22;38173;52.850;6.970;2023-08-30T11:30:08;16.40;99.90
52203;DHT22;38173;52.850;6.970;2023-08-30T11:32:36;16.30;99.90
52203;DHT22;38173;52.850;6.970;2023-08-30T11:35:03;16.20;99.90
52203;DHT22;38173;52.850;6.970;2023-08-30T11:37:29;16.10;99.90
52203;DHT22;38173;52.850;6.970;2023-08-30T11:39:56;16.00;99.90
52203;DHT22;38173;52.850;6.970;2023-08-30T11:42:22;15.90;99.90
52203;DHT22;38173;52.850;6.970;2023-08-30T11:44:50;15.90;99.90
52203;DHT22;38173;52.850;6.970;2023-08-30T11:47:19;15.80;99.90
52203;DHT22;38173;52.850;6.970;2023-08-30T11:49:55;15.70;99.90
52203;DHT22;38173;52.850;6.970;2023-08-30T11:52:23;15.80;99.90
52203;DHT22;38173;52.850;6.970;2023-08-30T11:54:50;15.80;99.90
52203;DHT22;38173;52.850;6.970;2023-08-30T11:57:16;15.80;99.90
52203;DHT22;38173;52.850;6.970;2023-08-30T11:59:43;15.80;99.90
52203;DHT22;38173;52.850;6.970;2023-08-30T12:02:09;15.90;99.90
52203;DHT22;38173;52.850;6.970;2023-08-30T12:04:43;15.90;99.90
52203;DHT22;38173;52.850;6.970;2023-08-30T12:07:09;15.90;99.90
52203;DHT22;38173;52.850;6.970;2023-08-30T12:09:46;15.80;99.90
52203;DHT22;38173;52.850;6.970;2023-08-30T12:12:12;15.80;99.90
52203;DHT22;38173;52.850;6.970;2023-08-30T12:14:39;15.80;99.90
52203;DHT22;38173;52.850;6.970;2023-08-30T12:17:08;15.90;99.90
52203;DHT22;38173;52.850;6.970;2023-08-30T12:19:40;16.00;99.90
52203;DHT22;38173;52.850;6.970;2023-08-30T12:22:07;16.00;99.90
52203;DHT22;38173;52.850;6.970;2023-08-30T12:24:44;16.10;99.90
52203;DHT22;38173;52.850;6.970;2023-08-30T12:27:10;16.10;99.90
52203;DHT22;38173;52.850;6.970;2023-08-30T12:29:40;16.00;99.90
52203;DHT22;38173;52.850;6.970;2023-08-30T12:32:08;15.90;99.90
52203;DHT22;38173;52.850;6.970;2023-08-30T12:34:34;15.90;99.90
52203;DHT22;38173;52.850;6.970;2023-08-30T12:37:00;15.80;99.90
52203;DHT22;38173;52.850;6.970;2023-08-30T12:39:29;15.70;99.90
52203;DHT22;38173;52.850;6.970;2023-08-30T12:41:54;15.70;99.90
52203;DHT22;38173;52.850;6.970;2023-08-30T12:44:21;15.60;99.90
52203;DHT22;38173;52.850;6.970;2023-08-30T12:46:46;15.60;99.90
52203;DHT22;38173;52.850;6.970;2023-08-30T12:49:12;15.60;99.90
52203;DHT22;38173;52.850;6.970;2023-08-30T12:51:38;15.60;99.90
52203;DHT22;38173;52.850;6.970;2023-08-30T12:54:04;15.60;99.90
52203;DHT22;38173;52.850;6.970;2023-08-30T12:56:31;15.60;99.90
52203;DHT22;38173;52.850;6.970;2023-08-30T12:58:57;15.50;99.90
52203;DHT22;38173;52.850;6.970;2023-08-30T13:01:23;15.50;99.90
52203;DHT22;38173;52.850;6.970;2023-08-30T13:03:50;15.50;99.90
52203;DHT22;38173;52.850;6.970;2023-08-30T13:06:15;15.50;99.90
52203;DHT22;38173;52.850;6.970;2023-08-30T13:08:41;15.60;99.90
52203;DHT22;38173;52.850;6.970;2023-08-30T13:11:06;15.60;99.90
52203;DHT22;38173;52.850;6.970;2023-08-30T13:13:32;15.70;99.90
52203;DHT22;38173;52.850;6.970;2023-08-30T13:15:58;15.70;99.90
52203;DHT22;38173;52.850;6.970;2023-08-30T13:18:27;15.80;99.90
52203;DHT22;38173;52.850;6.970;2023-08-30T13:20:56;15.80;99.90
52203;DHT22;38173;52.850;6.970;2023-08-30T13:23:21;15.90;99.90
52203;DHT22;38173;52.850;6.970;2023-08-30T13:25:48;15.90;99.90
52203;DHT22;38173;52.850;6.970;2023-08-30T13:28:14;16.00;99.90
52203;DHT22;38173;52.850;6.970;2023-08-30T13:30:46;16.10;99.90
52203;DHT22;38173;52.850;6.970;2023-08-30T13:33:13;16.20;99.90
52203;DHT22;38173;52.850;6.970;2023-08-30T13:35:39;16.20;99.90
52203;DHT22;38173;52.850;6.970;2023-08-30T13:38:07;16.30;99.90
52203;DHT22;38173;52.850;6.970;2023-08-30T13:40:33;16.20;99.90
52203;DHT22;38173;52.850;6.970;2023-08-30T13:42:59;16.10;99.90
52203;DHT22;38173;52.850;6.970;2023-08-30T13:45:25;16.10;99.90
52203;DHT22;38173;52.850;6.970;2023-08-30T13:47:51;16.00;99.90
52203;DHT22;38173;52.850;6.970;2023-08-30T13:50:18;16.10;99.90
52203;DHT22;38173;52.850;6.970;2023-08-30T13:52:44;16.00;99.90
52203;DHT22;38173;52.850;6.970;2023-08-30T13:55:12;16.10;99.90
52203;DHT22;38173;52.850;6.970;2023-08-30T13:57:37;16.20;99.90
52203;DHT22;38173;52.850;6.970;2023-08-30T14:00:03;16.20;99.90
52203;DHT22;38173;52.850;6.970;2023-08-30T14:02:36;16.30;99.90
52203;DHT22;38173;52.850;6.970;2023-08-30T14:05:02;16.40;99.90
52203;DHT22;38173;52.850;6.970;2023-08-30T14:07:27;16.50;99.90
52203;DHT22;38173;52.850;6.970;2023-08-30T14:09:53;16.60;99.90
52203;DHT22;38173;52.850;6.970;2023-08-30T14:12:19;16.70;99.90
52203;DHT22;38173;52.850;6.970;2023-08-30T14:14:45;16.80;99.90
52203;DHT22;38173;52.850;6.970;2023-08-30T14:17:10;16.90;99.90
52203;DHT22;38173;52.850;6.970;2023-08-30T14:19:37;17.10;99.90
52203;DHT22;38173;52.850;6.970;2023-08-30T14:22:03;17.20;99.90
52203;DHT22;38173;52.850;6.970;2023-08-30T14:24:31;17.50;99.90
52203;DHT22;38173;52.850;6.970;2023-08-30T14:26:59;17.70;99.90
52203;DHT22;38173;52.850;6.970;2023-08-30T14:29:26;18.00;99.90
52203;DHT22;38173;52.850;6.970;2023-08-30T14:31:52;18.20;99.90
52203;DHT22;38173;52.850;6.970;2023-08-30T14:34:17;18.50;99.90
52203;DHT22;38173;52.850;6.970;2023-08-30T14:36:43;18.50;99.90
52203;DHT22;38173;52.850;6.970;2023-08-30T14:39:09;18.40;99.90
52203;DHT22;38173;52.850;6.970;2023-08-30T14:41:35;18.20;99.90
52203;DHT22;38173;52.850;6.970;2023-08-30T14:44:04;18.10;99.90
52203;DHT22;38173;52.850;6.970;2023-08-30T14:46:30;17.90;99.90
52203;DHT22;38173;52.850;6.970;2023-08-30T14:48:56;17.70;99.90
52203;DHT22;38173;52.850;6.970;2023-08-30T14:51:22;17.60;99.90
52203;DHT22;38173;52.850;6.970;2023-08-30T14:53:49;17.60;99.90
52203;DHT22;38173;52.850;6.970;2023-08-30T14:56:15;17.60;99.90
52203;DHT22;38173;52.850;6.970;2023-08-30T14:58:43;17.70;99.90
52203;DHT22;38173;52.850;6.970;2023-08-30T15:01:09;17.70;99.90
52203;DHT22;38173;52.850;6.970;2023-08-30T15:03:35;17.80;99.90
52203;DHT22;38173;52.850;6.970;2023-08-30T15:06:02;17.90;99.90
52203;DHT22;38173;52.850;6.970;2023-08-30T15:08:28;18.00;99.90
52203;DHT22;38173;52.850;6.970;2023-08-30T15:10:54;18.10;99.90
52203;DHT22;38173;52.850;6.970;2023-08-30T15:13:20;18.20;99.90
52203;DHT22;38173;52.850;6.970;2023-08-30T15:15:50;18.10;99.90
52203;DHT22;38173;52.850;6.970;2023-08-30T15:18:16;18.10;99.90
52203;DHT22;38173;52.850;6.970;2023-08-30T15:20:44;18.30;99.90
52203;DHT22;38173;52.850;6.970;2023-08-30T15:23:13;18.60;99.90
52203;DHT22;38173;52.850;6.970;2023-08-30T15:25:45;19.00;99.90
52203;DHT22;38173;52.850;6.970;2023-08-30T15:28:12;19.20;99.90
52203;DHT22;38173;52.850;6.970;2023-08-30T15:30:41;19.30;99.90
52203;DHT22;38173;52.850;6.970;2023-08-30T15:33:08;19.50;99.90
52203;DHT22;38173;52.850;6.970;2023-08-30T15:35:37;19.60;99.90
52203;DHT22;38173;52.850;6.970;2023-08-30T15:38:02;19.60;99.90